AFR29LP GCFV-LFPG
Flight info
| Callsign | AFR29LP |
|---|---|
| Flight time | N/A |
| Altitude | 38000 |
| Route | SAMAR DCT BAROK DCT ATECA DCT DIGAL DCT MOSEN DCT ATLEN DCT FUJTI DCT ERIGA UN741 MOKOR/N0443F340 UN741 NTS/N0445F300 UN741 KEPER |
| Aircraft | A319/M-SDE3FGHIRWY/LB1 |
Departure
| Time | N/A |
|---|---|
| Airport | Fuerteventura Airport (GCFV) |
Arrival
| Time | 2026-05-07 12:01 |
|---|---|
| Airport | Charles de Gaulle International Airport (LFPG) |
| Time | Latitude | Longitude | Altitude | Speed | Heading |
|---|---|---|---|---|---|
| 2026-05-07 09:44 | 36.10580 | -9.95369 | 38024 ft | 452 kts | 14° |
| 2026-05-07 09:44 | 36.16403 | -9.92441 | 38033 ft | 452 kts | 14° |
| 2026-05-07 09:45 | 36.22233 | -9.89503 | 38026 ft | 452 kts | 14° |
| 2026-05-07 09:45 | 36.28050 | -9.86567 | 38028 ft | 451 kts | 14° |
| 2026-05-07 09:46 | 36.33861 | -9.83620 | 38026 ft | 451 kts | 14° |
| 2026-05-07 09:46 | 36.39671 | -9.80672 | 38031 ft | 451 kts | 14° |
| 2026-05-07 09:47 | 36.45478 | -9.77729 | 38031 ft | 451 kts | 14° |
| 2026-05-07 09:47 | 36.51252 | -9.74657 | 38028 ft | 452 kts | 17° |
| 2026-05-07 09:48 | 36.56981 | -9.71413 | 38022 ft | 452 kts | 17° |
| 2026-05-07 09:48 | 36.62701 | -9.68169 | 38011 ft | 451 kts | 17° |
| 2026-05-07 09:49 | 36.68418 | -9.64968 | 38017 ft | 450 kts | 17° |
| 2026-05-07 09:49 | 36.74134 | -9.61771 | 38014 ft | 450 kts | 17° |
| 2026-05-07 09:50 | 36.79839 | -9.58567 | 38009 ft | 449 kts | 17° |
| 2026-05-07 09:50 | 36.85541 | -9.55369 | 38013 ft | 449 kts | 17° |
| 2026-05-07 09:51 | 36.91240 | -9.52167 | 38006 ft | 449 kts | 17° |
| 2026-05-07 09:51 | 36.96934 | -9.48960 | 38008 ft | 449 kts | 17° |
| 2026-05-07 09:52 | 37.02629 | -9.45748 | 38006 ft | 449 kts | 17° |
| 2026-05-07 09:52 | 37.08329 | -9.42523 | 38006 ft | 449 kts | 17° |
| 2026-05-07 09:53 | 37.14029 | -9.39291 | 38009 ft | 449 kts | 17° |
| 2026-05-07 09:53 | 37.19722 | -9.36067 | 38008 ft | 449 kts | 17° |
| 2026-05-07 09:54 | 37.25418 | -9.32840 | 38010 ft | 449 kts | 17° |
| 2026-05-07 09:54 | 37.31119 | -9.29596 | 38007 ft | 449 kts | 17° |
| 2026-05-07 09:55 | 37.36812 | -9.26343 | 38008 ft | 449 kts | 17° |
| 2026-05-07 09:55 | 37.42505 | -9.23089 | 38010 ft | 449 kts | 17° |
| 2026-05-07 09:56 | 37.48193 | -9.19846 | 38005 ft | 449 kts | 17° |
| 2026-05-07 09:56 | 37.53877 | -9.16594 | 38009 ft | 448 kts | 18° |
| 2026-05-07 09:57 | 37.59552 | -9.13337 | 38004 ft | 448 kts | 18° |
| 2026-05-07 09:57 | 37.65227 | -9.10078 | 38005 ft | 448 kts | 18° |
| 2026-05-07 09:58 | 37.70888 | -9.06812 | 38003 ft | 447 kts | 18° |
| 2026-05-07 09:58 | 37.76550 | -9.03545 | 37996 ft | 447 kts | 18° |
| 2026-05-07 09:59 | 37.82215 | -9.00271 | 38005 ft | 447 kts | 18° |
| 2026-05-07 09:59 | 37.87869 | -8.97002 | 37998 ft | 447 kts | 18° |
| 2026-05-07 10:00 | 37.93530 | -8.93718 | 38004 ft | 447 kts | 18° |
| 2026-05-07 10:00 | 37.99181 | -8.90433 | 37998 ft | 447 kts | 18° |
| 2026-05-07 10:01 | 38.04830 | -8.87144 | 37986 ft | 447 kts | 18° |
| 2026-05-07 10:01 | 38.10476 | -8.83857 | 37992 ft | 447 kts | 18° |
| 2026-05-07 10:02 | 38.16121 | -8.80568 | 37986 ft | 446 kts | 18° |
| 2026-05-07 10:02 | 38.21767 | -8.77270 | 37982 ft | 447 kts | 18° |
| 2026-05-07 10:03 | 38.27414 | -8.73959 | 37976 ft | 447 kts | 19° |
| 2026-05-07 10:03 | 38.33059 | -8.70646 | 37976 ft | 447 kts | 19° |
| 2026-05-07 10:04 | 38.38717 | -8.67324 | 37970 ft | 448 kts | 19° |
| 2026-05-07 10:04 | 38.44382 | -8.63992 | 37970 ft | 449 kts | 19° |
| 2026-05-07 10:05 | 38.50088 | -8.60623 | 37964 ft | 449 kts | 19° |
| 2026-05-07 10:05 | 38.55766 | -8.57266 | 37967 ft | 450 kts | 19° |
| 2026-05-07 10:06 | 38.61448 | -8.53902 | 37959 ft | 450 kts | 19° |
| 2026-05-07 10:06 | 38.66178 | -8.51101 | 37961 ft | 451 kts | 19° |
| 2026-05-07 10:07 | 38.71875 | -8.47720 | 37945 ft | 452 kts | 19° |
| 2026-05-07 10:07 | 38.77581 | -8.44336 | 37955 ft | 452 kts | 19° |
| 2026-05-07 10:08 | 38.83293 | -8.40930 | 37953 ft | 453 kts | 19° |
| 2026-05-07 10:08 | 38.89001 | -8.37519 | 37955 ft | 453 kts | 19° |
| 2026-05-07 10:09 | 38.94723 | -8.34098 | 37956 ft | 454 kts | 19° |
| 2026-05-07 10:09 | 39.00443 | -8.30672 | 37955 ft | 454 kts | 19° |
| 2026-05-07 10:10 | 39.06165 | -8.27230 | 37955 ft | 454 kts | 19° |
| 2026-05-07 10:10 | 39.11885 | -8.23790 | 37948 ft | 454 kts | 19° |
| 2026-05-07 10:11 | 39.17615 | -8.20348 | 37948 ft | 454 kts | 19° |
| 2026-05-07 10:11 | 39.23345 | -8.16893 | 37945 ft | 455 kts | 20° |
| 2026-05-07 10:12 | 39.29076 | -8.13425 | 37946 ft | 455 kts | 20° |
| 2026-05-07 10:12 | 39.34811 | -8.09951 | 37946 ft | 455 kts | 20° |
| 2026-05-07 10:13 | 39.40544 | -8.06472 | 37944 ft | 455 kts | 20° |
| 2026-05-07 10:13 | 39.46286 | -8.02990 | 37945 ft | 456 kts | 20° |
| 2026-05-07 10:14 | 39.52023 | -7.99496 | 37946 ft | 455 kts | 20° |
| 2026-05-07 10:14 | 39.57758 | -7.95996 | 37945 ft | 455 kts | 20° |
| 2026-05-07 10:15 | 39.63493 | -7.92496 | 37941 ft | 455 kts | 20° |
| 2026-05-07 10:15 | 39.69235 | -7.88983 | 37938 ft | 456 kts | 20° |
| 2026-05-07 10:16 | 39.74975 | -7.85461 | 37938 ft | 456 kts | 20° |
| 2026-05-07 10:16 | 39.80721 | -7.81925 | 37932 ft | 457 kts | 21° |
| 2026-05-07 10:17 | 39.86460 | -7.78383 | 37932 ft | 457 kts | 21° |
| 2026-05-07 10:17 | 39.92217 | -7.74840 | 37937 ft | 457 kts | 21° |
| 2026-05-07 10:18 | 39.97968 | -7.71291 | 37937 ft | 458 kts | 21° |
| 2026-05-07 10:18 | 40.03719 | -7.67730 | 37932 ft | 458 kts | 21° |
| 2026-05-07 10:19 | 40.09469 | -7.64164 | 37934 ft | 458 kts | 21° |
| 2026-05-07 10:19 | 40.15220 | -7.60591 | 37929 ft | 458 kts | 21° |
| 2026-05-07 10:20 | 40.20964 | -7.57014 | 37932 ft | 458 kts | 21° |
| 2026-05-07 10:20 | 40.26718 | -7.53422 | 37928 ft | 458 kts | 21° |
| 2026-05-07 10:21 | 40.32464 | -7.49829 | 37931 ft | 458 kts | 21° |
| 2026-05-07 10:21 | 40.38218 | -7.46229 | 37929 ft | 458 kts | 21° |
| 2026-05-07 10:22 | 40.43965 | -7.42624 | 37924 ft | 458 kts | 22° |
| 2026-05-07 10:22 | 40.49707 | -7.39013 | 37925 ft | 457 kts | 22° |
| 2026-05-07 10:23 | 40.55447 | -7.35406 | 37924 ft | 457 kts | 22° |
| 2026-05-07 10:23 | 40.61188 | -7.31793 | 37919 ft | 457 kts | 22° |
| 2026-05-07 10:24 | 40.66929 | -7.28158 | 37915 ft | 458 kts | 22° |
| 2026-05-07 10:24 | 40.72665 | -7.24520 | 37924 ft | 458 kts | 22° |
| 2026-05-07 10:25 | 40.78413 | -7.20877 | 37918 ft | 458 kts | 22° |
| 2026-05-07 10:25 | 40.84157 | -7.17225 | 37920 ft | 458 kts | 22° |
| 2026-05-07 10:26 | 40.89901 | -7.13557 | 37921 ft | 458 kts | 22° |
| 2026-05-07 10:26 | 40.95649 | -7.09888 | 37921 ft | 459 kts | 22° |
| 2026-05-07 10:27 | 41.01399 | -7.06213 | 37925 ft | 459 kts | 22° |
| 2026-05-07 10:27 | 41.07151 | -7.02526 | 37921 ft | 459 kts | 22° |
| 2026-05-07 10:28 | 41.12904 | -6.98832 | 37919 ft | 460 kts | 22° |
| 2026-05-07 10:28 | 41.18668 | -6.95128 | 37922 ft | 460 kts | 22° |
| 2026-05-07 10:29 | 41.24428 | -6.91408 | 37926 ft | 461 kts | 22° |
| 2026-05-07 10:29 | 41.30205 | -6.87670 | 37930 ft | 461 kts | 22° |
| 2026-05-07 10:30 | 41.38869 | -6.82074 | 37935 ft | 462 kts | 22° |
| 2026-05-07 10:30 | 41.44655 | -6.78327 | 37935 ft | 462 kts | 23° |
| 2026-05-07 10:31 | 41.50436 | -6.74561 | 37934 ft | 463 kts | 23° |
| 2026-05-07 10:31 | 41.56225 | -6.70786 | 37931 ft | 463 kts | 23° |
| 2026-05-07 10:32 | 41.62020 | -6.67003 | 37936 ft | 463 kts | 23° |
| 2026-05-07 10:32 | 41.67807 | -6.63223 | 37930 ft | 463 kts | 23° |
| 2026-05-07 10:33 | 41.73594 | -6.59432 | 37933 ft | 463 kts | 23° |
| 2026-05-07 10:33 | 41.79388 | -6.55631 | 37933 ft | 463 kts | 22° |
| 2026-05-07 10:34 | 41.85276 | -6.52142 | 37938 ft | 462 kts | 19° |
| 2026-05-07 10:34 | 41.91230 | -6.48904 | 37940 ft | 462 kts | 19° |
| 2026-05-07 10:35 | 41.97181 | -6.45623 | 37939 ft | 462 kts | 20° |
| 2026-05-07 10:35 | 42.03107 | -6.42252 | 37943 ft | 463 kts | 20° |
| 2026-05-07 10:36 | 42.09010 | -6.38856 | 37937 ft | 463 kts | 20° |
| 2026-05-07 10:36 | 42.14948 | -6.35450 | 37941 ft | 463 kts | 20° |
| 2026-05-07 10:37 | 42.20885 | -6.32047 | 37949 ft | 463 kts | 20° |
| 2026-05-07 10:37 | 42.26817 | -6.28644 | 37949 ft | 463 kts | 20° |
| 2026-05-07 10:38 | 42.32749 | -6.25232 | 37947 ft | 463 kts | 20° |
| 2026-05-07 10:38 | 42.38672 | -6.21806 | 37952 ft | 463 kts | 21° |
| 2026-05-07 10:39 | 42.44610 | -6.18376 | 37945 ft | 463 kts | 21° |
| 2026-05-07 10:39 | 42.50540 | -6.14945 | 37953 ft | 464 kts | 21° |
| 2026-05-07 10:40 | 42.56476 | -6.11500 | 37953 ft | 464 kts | 21° |
| 2026-05-07 10:40 | 42.62412 | -6.08047 | 37961 ft | 464 kts | 21° |
| 2026-05-07 10:41 | 42.68341 | -6.04590 | 37954 ft | 464 kts | 21° |
| 2026-05-07 10:41 | 42.74274 | -6.01123 | 37967 ft | 464 kts | 21° |
| 2026-05-07 10:42 | 42.80199 | -5.97655 | 37953 ft | 464 kts | 21° |
| 2026-05-07 10:42 | 42.86131 | -5.94187 | 37955 ft | 464 kts | 21° |
| 2026-05-07 10:43 | 42.91058 | -5.91295 | 37954 ft | 464 kts | 21° |
| 2026-05-07 10:43 | 42.96976 | -5.87797 | 37953 ft | 464 kts | 21° |
| 2026-05-07 10:44 | 43.02895 | -5.84301 | 37949 ft | 463 kts | 21° |
| 2026-05-07 10:44 | 43.08805 | -5.80814 | 37950 ft | 463 kts | 21° |
| 2026-05-07 10:45 | 43.14723 | -5.77313 | 37949 ft | 463 kts | 21° |
| 2026-05-07 10:45 | 43.20634 | -5.73810 | 37948 ft | 463 kts | 21° |
| 2026-05-07 10:46 | 43.26543 | -5.70290 | 37952 ft | 463 kts | 21° |
| 2026-05-07 10:46 | 43.32447 | -5.66773 | 37951 ft | 462 kts | 21° |
| 2026-05-07 10:47 | 43.38354 | -5.63250 | 37956 ft | 462 kts | 21° |
| 2026-05-07 10:47 | 43.44251 | -5.59726 | 37954 ft | 462 kts | 21° |
| 2026-05-07 10:48 | 43.50145 | -5.56193 | 37954 ft | 462 kts | 21° |
| 2026-05-07 10:48 | 43.56035 | -5.52647 | 37955 ft | 462 kts | 21° |
| 2026-05-07 10:49 | 43.61920 | -5.49097 | 37960 ft | 461 kts | 21° |
| 2026-05-07 10:49 | 43.67804 | -5.45541 | 37967 ft | 461 kts | 21° |
| 2026-05-07 10:50 | 43.73678 | -5.41984 | 37968 ft | 461 kts | 21° |
| 2026-05-07 10:50 | 43.79553 | -5.38416 | 37963 ft | 461 kts | 21° |
| 2026-05-07 10:51 | 43.85413 | -5.34850 | 37972 ft | 460 kts | 21° |
| 2026-05-07 10:51 | 43.91276 | -5.31280 | 37971 ft | 460 kts | 21° |
| 2026-05-07 10:52 | 43.97133 | -5.27706 | 37979 ft | 460 kts | 21° |
| 2026-05-07 10:52 | 44.02992 | -5.24136 | 37978 ft | 459 kts | 21° |
| 2026-05-07 10:53 | 44.08835 | -5.20557 | 37979 ft | 459 kts | 21° |
| 2026-05-07 10:53 | 44.14680 | -5.16960 | 37977 ft | 459 kts | 22° |
| 2026-05-07 10:54 | 44.20511 | -5.13364 | 37982 ft | 458 kts | 22° |
| 2026-05-07 10:54 | 44.26340 | -5.09769 | 37979 ft | 458 kts | 22° |
| 2026-05-07 10:55 | 44.32173 | -5.06169 | 37985 ft | 458 kts | 22° |
| 2026-05-07 10:55 | 44.37993 | -5.02559 | 37987 ft | 458 kts | 22° |
| 2026-05-07 10:56 | 44.43814 | -4.98941 | 37984 ft | 457 kts | 22° |
| 2026-05-07 10:56 | 44.49599 | -4.95241 | 37982 ft | 458 kts | 27° |
| 2026-05-07 10:57 | 44.54768 | -4.89989 | 37988 ft | 460 kts | 37° |
| 2026-05-07 10:57 | 44.59758 | -4.84337 | 37991 ft | 460 kts | 37° |
| 2026-05-07 10:58 | 44.64746 | -4.78691 | 37994 ft | 460 kts | 37° |
| 2026-05-07 10:58 | 44.69723 | -4.73032 | 37994 ft | 460 kts | 37° |
| 2026-05-07 10:59 | 44.74696 | -4.67363 | 38000 ft | 460 kts | 37° |
| 2026-05-07 10:59 | 44.79673 | -4.61679 | 38001 ft | 460 kts | 37° |
| 2026-05-07 11:00 | 44.84641 | -4.55997 | 38006 ft | 460 kts | 38° |
| 2026-05-07 11:00 | 44.89615 | -4.50310 | 38008 ft | 460 kts | 37° |
| 2026-05-07 11:01 | 44.94584 | -4.44609 | 38011 ft | 460 kts | 38° |
| 2026-05-07 11:01 | 44.99539 | -4.38894 | 38012 ft | 460 kts | 38° |
| 2026-05-07 11:02 | 45.04491 | -4.33167 | 38018 ft | 460 kts | 38° |
| 2026-05-07 11:02 | 45.09451 | -4.27430 | 38016 ft | 460 kts | 38° |
| 2026-05-07 11:03 | 45.14412 | -4.21697 | 38022 ft | 460 kts | 38° |
| 2026-05-07 11:03 | 45.19363 | -4.15943 | 38017 ft | 460 kts | 38° |
| 2026-05-07 11:04 | 45.24299 | -4.10177 | 38021 ft | 460 kts | 38° |
| 2026-05-07 11:04 | 45.29236 | -4.04412 | 38022 ft | 460 kts | 38° |
| 2026-05-07 11:05 | 45.34173 | -3.98644 | 38010 ft | 459 kts | 38° |
| 2026-05-07 11:05 | 45.39102 | -3.92867 | 38013 ft | 459 kts | 38° |
| 2026-05-07 11:06 | 45.44023 | -3.87065 | 38014 ft | 459 kts | 38° |
| 2026-05-07 11:06 | 45.48946 | -3.81264 | 38015 ft | 459 kts | 38° |
| 2026-05-07 11:07 | 45.53874 | -3.75455 | 38019 ft | 460 kts | 38° |
| 2026-05-07 11:07 | 45.58800 | -3.69639 | 38024 ft | 460 kts | 38° |
| 2026-05-07 11:08 | 45.63730 | -3.63779 | 38031 ft | 461 kts | 38° |
| 2026-05-07 11:08 | 45.68645 | -3.57914 | 38036 ft | 460 kts | 38° |
| 2026-05-07 11:09 | 45.73571 | -3.52049 | 38032 ft | 460 kts | 38° |
| 2026-05-07 11:09 | 45.78491 | -3.46176 | 38042 ft | 461 kts | 38° |
| 2026-05-07 11:10 | 45.83407 | -3.40281 | 38036 ft | 461 kts | 38° |
| 2026-05-07 11:10 | 45.88323 | -3.34387 | 38042 ft | 461 kts | 39° |
| 2026-05-07 11:11 | 45.93238 | -3.28466 | 38041 ft | 461 kts | 39° |
| 2026-05-07 11:11 | 45.98153 | -3.22530 | 38038 ft | 461 kts | 39° |
| 2026-05-07 11:12 | 46.03062 | -3.16589 | 38042 ft | 462 kts | 39° |
| 2026-05-07 11:12 | 46.07974 | -3.10630 | 38041 ft | 462 kts | 39° |
| 2026-05-07 11:13 | 46.12886 | -3.04657 | 38042 ft | 462 kts | 39° |
| 2026-05-07 11:13 | 46.17800 | -2.98673 | 38045 ft | 461 kts | 39° |
| 2026-05-07 11:14 | 46.22700 | -2.92686 | 38048 ft | 461 kts | 39° |
| 2026-05-07 11:14 | 46.27719 | -2.86942 | 38048 ft | 460 kts | 31° |
| 2026-05-07 11:15 | 46.33223 | -2.82204 | 38049 ft | 460 kts | 29° |
| 2026-05-07 11:15 | 46.38728 | -2.77485 | 38050 ft | 460 kts | 30° |
| 2026-05-07 11:16 | 46.44229 | -2.72743 | 38050 ft | 460 kts | 30° |
| 2026-05-07 11:16 | 46.49723 | -2.67987 | 38047 ft | 460 kts | 30° |
| 2026-05-07 11:17 | 46.55219 | -2.63224 | 38053 ft | 460 kts | 30° |
| 2026-05-07 11:17 | 46.60710 | -2.58454 | 38043 ft | 460 kts | 30° |
| 2026-05-07 11:18 | 46.66205 | -2.53668 | 38045 ft | 460 kts | 30° |
| 2026-05-07 11:18 | 46.71691 | -2.48872 | 38049 ft | 460 kts | 30° |
| 2026-05-07 11:19 | 46.77176 | -2.44062 | 38039 ft | 460 kts | 30° |
| 2026-05-07 11:19 | 46.82649 | -2.39221 | 38033 ft | 460 kts | 33° |
| 2026-05-07 11:20 | 46.86642 | -2.34096 | 38036 ft | 461 kts | 49° |
| 2026-05-07 11:20 | 46.90242 | -2.26278 | 38029 ft | 462 kts | 58° |
| 2026-05-07 11:21 | 46.93608 | -2.18269 | 38020 ft | 462 kts | 58° |
| 2026-05-07 11:21 | 46.96965 | -2.10298 | 38018 ft | 462 kts | 58° |
| 2026-05-07 11:22 | 47.00329 | -2.02269 | 38031 ft | 463 kts | 58° |
| 2026-05-07 11:22 | 47.03602 | -1.94136 | 38028 ft | 463 kts | 60° |
| 2026-05-07 11:23 | 47.06735 | -1.85875 | 38027 ft | 463 kts | 61° |
| 2026-05-07 11:23 | 47.09856 | -1.77596 | 38028 ft | 464 kts | 60° |
| 2026-05-07 11:24 | 47.13004 | -1.69325 | 38035 ft | 464 kts | 60° |
| 2026-05-07 11:24 | 47.16211 | -1.61111 | 38030 ft | 464 kts | 56° |
| 2026-05-07 11:25 | 47.20026 | -1.53468 | 38044 ft | 464 kts | 53° |
| 2026-05-07 11:25 | 47.23841 | -1.45818 | 38037 ft | 464 kts | 53° |
| 2026-05-07 11:26 | 47.27654 | -1.38139 | 38027 ft | 464 kts | 53° |
| 2026-05-07 11:26 | 47.31460 | -1.30459 | 38035 ft | 464 kts | 53° |
| 2026-05-07 11:27 | 47.35262 | -1.22771 | 38036 ft | 464 kts | 53° |
| 2026-05-07 11:27 | 47.39067 | -1.15070 | 38029 ft | 464 kts | 53° |
| 2026-05-07 11:28 | 47.42866 | -1.07351 | 38040 ft | 465 kts | 53° |
| 2026-05-07 11:28 | 47.46653 | -0.99624 | 38028 ft | 465 kts | 54° |
| 2026-05-07 11:29 | 47.50435 | -0.91861 | 38043 ft | 465 kts | 54° |
| 2026-05-07 11:29 | 47.53927 | -0.83826 | 38048 ft | 465 kts | 65° |
| 2026-05-07 11:30 | 47.56233 | -0.74877 | 38048 ft | 465 kts | 70° |
| 2026-05-07 11:30 | 47.58434 | -0.65872 | 38047 ft | 465 kts | 70° |
| 2026-05-07 11:31 | 47.60625 | -0.56846 | 38047 ft | 465 kts | 70° |
| 2026-05-07 11:31 | 47.62809 | -0.47802 | 38065 ft | 466 kts | 70° |
| 2026-05-07 11:32 | 47.66077 | -0.34225 | 38062 ft | 466 kts | 70° |
| 2026-05-07 11:33 | 47.68243 | -0.25146 | 38061 ft | 467 kts | 71° |
| 2026-05-07 11:33 | 47.70399 | -0.16055 | 38061 ft | 467 kts | 71° |
| 2026-05-07 11:34 | 47.72556 | -0.06963 | 38061 ft | 467 kts | 71° |
| 2026-05-07 11:34 | 47.74708 | 0.02153 | 38010 ft | 468 kts | 71° |
| 2026-05-07 11:35 | 47.76865 | 0.11331 | 38059 ft | 472 kts | 71° |
| 2026-05-07 11:35 | 47.79092 | 0.20514 | 38059 ft | 472 kts | 65° |
| 2026-05-07 11:35 | 47.80676 | 0.24789 | 37778 ft | 473 kts | 55° |
| 2026-05-07 11:36 | 47.82767 | 0.28570 | 36981 ft | 474 kts | 45° |
| 2026-05-07 11:36 | 47.85197 | 0.31874 | 36225 ft | 473 kts | 38° |
| 2026-05-07 11:36 | 47.87834 | 0.34793 | 35462 ft | 472 kts | 33° |
| 2026-05-07 11:36 | 47.90523 | 0.37601 | 34718 ft | 472 kts | 34° |
| 2026-05-07 11:37 | 47.93187 | 0.40426 | 33844 ft | 470 kts | 34° |
| 2026-05-07 11:37 | 47.95847 | 0.43268 | 32744 ft | 469 kts | 35° |
| 2026-05-07 11:37 | 47.98500 | 0.46099 | 31593 ft | 468 kts | 35° |
| 2026-05-07 11:37 | 48.01158 | 0.48914 | 30417 ft | 469 kts | 34° |
| 2026-05-07 11:38 | 48.03818 | 0.51713 | 29059 ft | 469 kts | 34° |
| 2026-05-07 11:38 | 48.06491 | 0.54519 | 27613 ft | 470 kts | 34° |
| 2026-05-07 11:38 | 48.09152 | 0.57317 | 26433 ft | 465 kts | 34° |
| 2026-05-07 11:38 | 48.11777 | 0.60088 | 25344 ft | 458 kts | 34° |
| 2026-05-07 11:39 | 48.14367 | 0.62828 | 24445 ft | 454 kts | 34° |
| 2026-05-07 11:39 | 48.16933 | 0.65546 | 23768 ft | 447 kts | 34° |
| 2026-05-07 11:39 | 48.19446 | 0.68212 | 23026 ft | 441 kts | 34° |
| 2026-05-07 11:39 | 48.21926 | 0.70852 | 22407 ft | 432 kts | 34° |
| 2026-05-07 11:40 | 48.24353 | 0.73439 | 21807 ft | 425 kts | 34° |
| 2026-05-07 11:40 | 48.26746 | 0.75992 | 21249 ft | 418 kts | 34° |
| 2026-05-07 11:40 | 48.29105 | 0.78503 | 20693 ft | 413 kts | 34° |
| 2026-05-07 11:40 | 48.31440 | 0.80980 | 20172 ft | 408 kts | 34° |
| 2026-05-07 11:41 | 48.33611 | 0.83696 | 19652 ft | 406 kts | 44° |
| 2026-05-07 11:41 | 48.35413 | 0.86947 | 19136 ft | 403 kts | 55° |
| 2026-05-07 11:41 | 48.36811 | 0.90579 | 18608 ft | 400 kts | 62° |
| 2026-05-07 11:41 | 48.38091 | 0.94283 | 18038 ft | 398 kts | 62° |
| 2026-05-07 11:42 | 48.39361 | 0.97956 | 17491 ft | 393 kts | 62° |
| 2026-05-07 11:42 | 48.40616 | 1.01586 | 16944 ft | 390 kts | 62° |
| 2026-05-07 11:42 | 48.41861 | 1.05189 | 16396 ft | 386 kts | 62° |
| 2026-05-07 11:42 | 48.43098 | 1.08768 | 15843 ft | 383 kts | 62° |
| 2026-05-07 11:43 | 48.44317 | 1.12307 | 15285 ft | 380 kts | 62° |
| 2026-05-07 11:43 | 48.45530 | 1.15832 | 14728 ft | 377 kts | 62° |
| 2026-05-07 11:43 | 48.46729 | 1.19324 | 14165 ft | 375 kts | 62° |
| 2026-05-07 11:43 | 48.47921 | 1.22803 | 13573 ft | 372 kts | 62° |
| 2026-05-07 11:44 | 48.49100 | 1.26255 | 12993 ft | 368 kts | 62° |
| 2026-05-07 11:44 | 48.50265 | 1.29669 | 12440 ft | 364 kts | 62° |
| 2026-05-07 11:44 | 48.51419 | 1.33048 | 11854 ft | 360 kts | 62° |
| 2026-05-07 11:44 | 48.52553 | 1.36357 | 11605 ft | 347 kts | 62° |
| 2026-05-07 11:45 | 48.53633 | 1.39508 | 11476 ft | 332 kts | 62° |
| 2026-05-07 11:45 | 48.54671 | 1.42539 | 11349 ft | 318 kts | 62° |
| 2026-05-07 11:45 | 48.55672 | 1.45452 | 11202 ft | 307 kts | 62° |
| 2026-05-07 11:45 | 48.56707 | 1.48225 | 10926 ft | 301 kts | 54° |
| 2026-05-07 11:46 | 48.57435 | 1.49586 | 10794 ft | 299 kts | 46° |
| 2026-05-07 11:46 | 48.58846 | 1.51420 | 10572 ft | 296 kts | 34° |
| 2026-05-07 11:46 | 48.60642 | 1.52912 | 10339 ft | 294 kts | 25° |
| 2026-05-07 11:46 | 48.62481 | 1.54272 | 10086 ft | 293 kts | 25° |
| 2026-05-07 11:47 | 48.64304 | 1.55621 | 9922 ft | 292 kts | 26° |
| 2026-05-07 11:47 | 48.66126 | 1.56968 | 9788 ft | 291 kts | 26° |
| 2026-05-07 11:47 | 48.67944 | 1.58306 | 9667 ft | 290 kts | 26° |
| 2026-05-07 11:47 | 48.69759 | 1.59629 | 9424 ft | 289 kts | 25° |
| 2026-05-07 11:48 | 48.71560 | 1.60953 | 9219 ft | 287 kts | 26° |
| 2026-05-07 11:48 | 48.73348 | 1.62287 | 9020 ft | 286 kts | 26° |
| 2026-05-07 11:48 | 48.75122 | 1.63628 | 8821 ft | 284 kts | 26° |
| 2026-05-07 11:48 | 48.76887 | 1.64976 | 8626 ft | 283 kts | 26° |
| 2026-05-07 11:49 | 48.78640 | 1.66323 | 8430 ft | 282 kts | 26° |
| 2026-05-07 11:49 | 48.80383 | 1.67671 | 8234 ft | 281 kts | 26° |
| 2026-05-07 11:49 | 48.82116 | 1.69016 | 8054 ft | 280 kts | 26° |
| 2026-05-07 11:49 | 48.83851 | 1.70364 | 7873 ft | 279 kts | 26° |
| 2026-05-07 11:50 | 48.85572 | 1.71702 | 7688 ft | 277 kts | 26° |
| 2026-05-07 11:50 | 48.87219 | 1.72984 | 7528 ft | 276 kts | 26° |
| 2026-05-07 11:50 | 48.88931 | 1.74316 | 7353 ft | 275 kts | 26° |
| 2026-05-07 11:50 | 48.90628 | 1.75635 | 7191 ft | 274 kts | 26° |
| 2026-05-07 11:51 | 48.92324 | 1.76970 | 7035 ft | 273 kts | 28° |
| 2026-05-07 11:51 | 48.93760 | 1.78834 | 6884 ft | 274 kts | 52° |
| 2026-05-07 11:51 | 48.94586 | 1.81423 | 6735 ft | 274 kts | 74° |
| 2026-05-07 11:51 | 48.95059 | 1.84231 | 6587 ft | 274 kts | 75° |
| 2026-05-07 11:52 | 48.95525 | 1.87037 | 6438 ft | 273 kts | 75° |
| 2026-05-07 11:52 | 48.95987 | 1.89834 | 6274 ft | 272 kts | 75° |
| 2026-05-07 11:52 | 48.96447 | 1.92624 | 6126 ft | 271 kts | 75° |
| 2026-05-07 11:52 | 48.96749 | 1.94462 | 6030 ft | 271 kts | 75° |
| 2026-05-07 11:53 | 48.96851 | 1.95084 | 5978 ft | 271 kts | 75° |
| 2026-05-07 11:53 | 48.97313 | 1.97916 | 5813 ft | 270 kts | 75° |
| 2026-05-07 11:53 | 48.97770 | 2.00688 | 5663 ft | 269 kts | 75° |
| 2026-05-07 11:54 | 48.98216 | 2.03384 | 5506 ft | 256 kts | 75° |
| 2026-05-07 11:54 | 48.98635 | 2.05920 | 5353 ft | 244 kts | 75° |
| 2026-05-07 11:54 | 48.99038 | 2.08369 | 5196 ft | 234 kts | 75° |
| 2026-05-07 11:54 | 48.99423 | 2.10722 | 5089 ft | 222 kts | 75° |
| 2026-05-07 11:55 | 48.99784 | 2.12936 | 5034 ft | 209 kts | 75° |
| 2026-05-07 11:55 | 49.00150 | 2.15055 | 4971 ft | 207 kts | 73° |
| 2026-05-07 11:55 | 49.00445 | 2.17157 | 4882 ft | 199 kts | 80° |
| 2026-05-07 11:55 | 49.00563 | 2.18553 | 4774 ft | 196 kts | 83° |
| 2026-05-07 11:56 | 49.00699 | 2.20640 | 4457 ft | 200 kts | 84° |
| 2026-05-07 11:56 | 49.00823 | 2.22768 | 4167 ft | 202 kts | 84° |
| 2026-05-07 11:56 | 49.00942 | 2.24862 | 4005 ft | 195 kts | 84° |
| 2026-05-07 11:56 | 49.01057 | 2.26910 | 3731 ft | 192 kts | 84° |
| 2026-05-07 11:57 | 49.01170 | 2.28910 | 3483 ft | 188 kts | 84° |
| 2026-05-07 11:57 | 49.01280 | 2.30877 | 3234 ft | 186 kts | 84° |
| 2026-05-07 11:57 | 49.01390 | 2.32833 | 2977 ft | 184 kts | 84° |
| 2026-05-07 11:57 | 49.01498 | 2.34762 | 2727 ft | 182 kts | 84° |
| 2026-05-07 11:58 | 49.01603 | 2.36665 | 2479 ft | 180 kts | 84° |
| 2026-05-07 11:58 | 49.01708 | 2.38555 | 2233 ft | 177 kts | 84° |
| 2026-05-07 11:58 | 49.01809 | 2.40377 | 1999 ft | 167 kts | 84° |
| 2026-05-07 11:58 | 49.01902 | 2.42079 | 1786 ft | 155 kts | 84° |
| 2026-05-07 11:59 | 49.01987 | 2.43620 | 1576 ft | 138 kts | 84° |
| 2026-05-07 11:59 | 49.02065 | 2.45035 | 1388 ft | 131 kts | 84° |
| 2026-05-07 11:59 | 49.02140 | 2.46403 | 1215 ft | 128 kts | 84° |
| 2026-05-07 11:59 | 49.02213 | 2.47746 | 1057 ft | 127 kts | 84° |
| 2026-05-07 12:00 | 49.02287 | 2.49080 | 888 ft | 126 kts | 83° |
| 2026-05-07 12:00 | 49.02366 | 2.50409 | 679 ft | 126 kts | 83° |
| 2026-05-07 12:00 | 49.02433 | 2.51731 | 500 ft | 125 kts | 83° |
| 2026-05-07 12:00 | 49.02507 | 2.53040 | 367 ft | 121 kts | 80° |
| 2026-05-07 12:01 | 49.02563 | 2.54115 | 354 ft | 81 kts | 86° |
| 2026-05-07 12:01 | 49.02596 | 2.54722 | 359 ft | 43 kts | 85° |
| 2026-05-07 12:01 | 49.02610 | 2.55062 | 354 ft | 21 kts | 90° |
| 2026-05-07 12:01 | 49.02575 | 2.55273 | 362 ft | 21 kts | 111° |
| 2026-05-07 12:02 | 49.02526 | 2.55435 | 356 ft | 10 kts | 116° |
| 2026-05-07 12:02 | 49.02505 | 2.55503 | 360 ft | 0 kts | 115° |
| 2026-05-07 12:05 | 49.02498 | 2.55526 | 361 ft | 5 kts | 115° |
| 2026-05-07 12:05 | 49.02475 | 2.55580 | 355 ft | 7 kts | 135° |
| 2026-05-07 12:05 | 49.02427 | 2.55610 | 359 ft | 8 kts | 169° |
| 2026-05-07 12:05 | 49.02363 | 2.55621 | 355 ft | 10 kts | 175° |
| 2026-05-07 12:06 | 49.02286 | 2.55629 | 354 ft | 12 kts | 176° |
| 2026-05-07 12:06 | 49.02194 | 2.55640 | 358 ft | 14 kts | 175° |
| 2026-05-07 12:06 | 49.02094 | 2.55652 | 355 ft | 15 kts | 175° |
| 2026-05-07 12:06 | 49.01987 | 2.55666 | 355 ft | 16 kts | 175° |
| 2026-05-07 12:07 | 49.01895 | 2.55635 | 358 ft | 14 kts | 237° |
| 2026-05-07 12:07 | 49.01881 | 2.55481 | 355 ft | 15 kts | 265° |
| 2026-05-07 12:07 | 49.01872 | 2.55312 | 355 ft | 17 kts | 265° |
| 2026-05-07 12:07 | 49.01856 | 2.55160 | 359 ft | 14 kts | 243° |
| 2026-05-07 12:08 | 49.01763 | 2.55138 | 359 ft | 15 kts | 175° |
| 2026-05-07 12:08 | 49.01654 | 2.55151 | 361 ft | 16 kts | 175° |
| 2026-05-07 12:08 | 49.01536 | 2.55168 | 359 ft | 18 kts | 175° |
| 2026-05-07 12:08 | 49.01408 | 2.55187 | 359 ft | 19 kts | 168° |
| 2026-05-07 12:09 | 49.01290 | 2.55209 | 355 ft | 16 kts | 197° |
| 2026-05-07 12:09 | 49.01179 | 2.55159 | 355 ft | 17 kts | 191° |
| 2026-05-07 12:09 | 49.01061 | 2.55203 | 355 ft | 18 kts | 161° |
| 2026-05-07 12:09 | 49.00934 | 2.55263 | 355 ft | 20 kts | 163° |
| 2026-05-07 12:10 | 49.00797 | 2.55322 | 356 ft | 18 kts | 162° |
| 2026-05-07 12:10 | 49.00728 | 2.55459 | 355 ft | 19 kts | 85° |
| 2026-05-07 12:10 | 49.00746 | 2.55666 | 355 ft | 20 kts | 83° |
| 2026-05-07 12:10 | 49.00765 | 2.55884 | 355 ft | 22 kts | 82° |
| 2026-05-07 12:11 | 49.00785 | 2.56121 | 355 ft | 23 kts | 82° |
| 2026-05-07 12:11 | 49.00808 | 2.56367 | 355 ft | 24 kts | 82° |
| 2026-05-07 12:11 | 49.00829 | 2.56625 | 355 ft | 25 kts | 85° |
| 2026-05-07 12:11 | 49.00841 | 2.56879 | 361 ft | 22 kts | 84° |
| 2026-05-07 12:12 | 49.00853 | 2.57078 | 358 ft | 14 kts | 84° |
| 2026-05-07 12:12 | 49.00825 | 2.57213 | 360 ft | 15 kts | 160° |
| 2026-05-07 12:12 | 49.00714 | 2.57229 | 361 ft | 17 kts | 176° |
| 2026-05-07 12:12 | 49.00638 | 2.57235 | 354 ft | 6 kts | 177° |
| 2026-05-07 12:13 | 49.00589 | 2.57247 | 360 ft | 7 kts | 147° |
| 2026-05-07 12:13 | 49.00583 | 2.57313 | 354 ft | 7 kts | 87° |
| 2026-05-07 12:13 | 49.00584 | 2.57342 | 354 ft | 2 kts | 85° |
| 2026-05-07 12:13 | 49.00585 | 2.57348 | 354 ft | 0 kts | 84° |